KPIH/PIH METAR and TAF weather

Enter ICAO airport designator
Station Type Date Time Source
KPIH METAR 2024/04/15 08:53 UTC NOAA

KPIH 150853Z AUTO 23015KT 10SM BKN050 OVC070 08/01 A2986 RMK AO2 SLP082 T00830006 51002


Station Type Date Time Source
KPIH Decoded METAR 2024/04/15 08:53 UTC NOAA

POCATELLO REGIONAL AIRPORT, ID, United States (KPIH) 42-55N 112-36W 1359M
Apr 15, 2024 - 04:53 AM EDT / 2024.04.15 0853 UTC
Wind: from the SW (230 degrees) at 17 MPH (15 KT):0
Visibility: 10 mile(s):0
Sky conditions: overcast
Temperature: 46.9 F (8.3 C)
Dew Point: 33.1 F (0.6 C)
Relative Humidity: 58%
Pressure (altimeter): 29.86 in. Hg (1011 hPa)
Pressure tendency: 0.01 inches (0.2 hPa) higher than three hours ago
ob: KPIH 150853Z AUTO 23015KT 10SM BKN050 OVC070 08/01 A2986 RMK AO2 SLP082 T00830006 51002
cycle: 9

Station Type Date Time Source
KPIH TAF 2024/04/14 18:22 UTC NOAA